createdAt,value
2023-11-28T00:02:49.954Z,7.55
2023-11-28T00:05:57.869Z,10.35
2023-11-28T00:09:03.869Z,9.20
2023-11-28T00:12:12.919Z,10.60
2023-11-28T00:15:19.853Z,8.30
2023-11-28T00:18:27.907Z,12.77
2023-11-28T00:21:33.898Z,10.38
2023-11-28T00:24:40.873Z,11.02
2023-11-28T00:27:48.370Z,10.23
2023-11-28T00:30:55.914Z,11.13
2023-11-28T00:34:04.904Z,10.32
2023-11-28T00:37:11.912Z,10.27
2023-11-28T00:40:20.898Z,10.85
2023-11-28T00:43:26.910Z,10.13
2023-11-28T00:46:33.158Z,10.40
2023-11-28T00:49:35.789Z,11.85
2023-11-28T00:52:36.965Z,11.27
2023-11-28T00:55:42.954Z,11.35
2023-11-28T00:58:50.152Z,10.20
2023-11-28T01:01:56.970Z,10.30
2023-11-28T01:05:06.999Z,11.00
2023-11-28T01:08:12.941Z,10.20
2023-11-28T01:11:19.997Z,10.57
2023-11-28T01:14:26.945Z,11.27
2023-11-28T01:17:32.954Z,12.05
2023-11-28T01:20:42.899Z,11.25
2023-11-28T01:23:48.958Z,12.07
2023-11-28T01:26:55.997Z,10.52
2023-11-28T01:30:02.947Z,13.32
2023-11-28T01:33:08.966Z,9.55
2023-11-28T01:36:18.937Z,10.40
2023-11-28T01:39:24.933Z,7.85
2023-11-28T01:42:31.913Z,11.70
2023-11-28T01:45:37.943Z,10.00
2023-11-28T01:48:45.961Z,13.75
2023-11-28T01:51:56.085Z,10.02
2023-11-28T01:55:03.922Z,14.40
2023-11-28T01:58:10.974Z,11.88
2023-11-28T02:01:18.932Z,11.23
2023-11-28T02:04:18.906Z,12.95
2023-11-28T02:07:24.069Z,12.95
2023-11-28T02:10:30.954Z,10.35
2023-11-28T02:13:38.138Z,13.18
2023-11-28T02:16:44.998Z,13.52
2023-11-28T02:19:51.026Z,11.07
2023-11-28T02:22:58.080Z,13.18
2023-11-28T02:26:05.006Z,10.77
2023-11-28T02:29:12.977Z,11.80
2023-11-28T02:32:19.099Z,11.52
2023-11-28T02:35:27.066Z,9.73
2023-11-28T02:38:33.017Z,13.38
2023-11-28T02:41:38.953Z,8.98
2023-11-28T02:44:46.989Z,12.70
2023-11-28T02:47:56.068Z,15.30
2023-11-28T02:51:02.970Z,11.60
2023-11-28T02:54:08.994Z,13.75
2023-11-28T02:57:16.030Z,13.27
2023-11-28T03:00:24.008Z,11.95
2023-11-28T03:03:30.998Z,14.10
2023-11-28T03:06:38.005Z,10.50
2023-11-28T03:09:45.179Z,16.58
2023-11-28T03:12:52.985Z,13.75
2023-11-28T03:16:02.069Z,13.50
2023-11-28T03:19:07.969Z,11.23
2023-11-28T03:22:15.025Z,11.73
2023-11-28T03:25:25.042Z,14.48
2023-11-28T03:28:31.114Z,15.57
2023-11-28T03:31:40.062Z,15.57
2023-11-28T03:34:46.056Z,8.82
2023-11-28T03:37:52.113Z,8.95
2023-11-28T03:40:58.105Z,10.65
2023-11-28T03:44:04.060Z,11.75
2023-11-28T03:47:14.104Z,10.75
2023-11-28T03:50:20.045Z,12.70
2023-11-28T03:53:26.036Z,9.93
2023-11-28T03:56:33.042Z,11.48
2023-11-28T03:59:39.066Z,13.60
2023-11-28T04:02:39.958Z,17.27
2023-11-28T04:05:39.006Z,14.55
2023-11-28T04:08:46.045Z,14.55
2023-11-28T04:11:55.095Z,14.23
2023-11-28T04:15:01.024Z,12.68
2023-11-28T04:18:12.301Z,12.07
2023-11-28T04:21:20.039Z,12.07
2023-11-28T04:24:20.065Z,11.90
2023-11-28T04:27:28.078Z,14.32
2023-11-28T04:30:34.104Z,10.90
2023-11-28T04:33:43.082Z,12.88
2023-11-28T04:36:50.044Z,11.52
2023-11-28T04:39:57.055Z,15.82
2023-11-28T04:43:04.064Z,12.65
2023-11-28T04:46:11.188Z,12.10
2023-11-28T04:49:21.089Z,13.32
2023-11-28T04:52:30.137Z,13.05
2023-11-28T04:55:38.131Z,11.13
2023-11-28T04:58:46.144Z,13.10
2023-11-28T05:01:52.180Z,14.95
2023-11-28T05:05:00.108Z,14.98
2023-11-28T05:08:07.125Z,13.48
2023-11-28T05:11:08.293Z,16.88
2023-11-28T05:14:11.133Z,12.60
2023-11-28T05:17:18.136Z,12.05
2023-11-28T05:20:28.129Z,14.38
2023-11-28T05:23:35.067Z,16.25
2023-11-28T05:26:43.205Z,16.25
2023-11-28T05:29:50.090Z,13.68
2023-11-28T05:32:58.164Z,11.55
2023-11-28T05:36:07.153Z,15.50
2023-11-28T05:39:15.141Z,13.82
2023-11-28T05:42:21.108Z,13.30
2023-11-28T05:45:28.116Z,16.73
2023-11-28T05:48:36.119Z,13.43
2023-11-28T05:51:46.047Z,17.45
2023-11-28T05:54:53.093Z,13.25
2023-11-28T05:58:00.190Z,13.10
2023-11-28T06:01:08.112Z,13.80
2023-11-28T06:04:14.160Z,13.23
2023-11-28T06:07:23.227Z,13.80
2023-11-28T06:10:29.151Z,15.77
2023-11-28T06:13:36.161Z,18.48
2023-11-28T06:16:42.180Z,13.82
2023-11-28T06:19:50.364Z,15.50
2023-11-28T06:22:58.162Z,14.63
2023-11-28T06:26:04.197Z,13.13
2023-11-28T06:29:11.164Z,17.83
2023-11-28T06:32:18.199Z,16.25
2023-11-28T06:35:25.206Z,15.30
2023-11-28T06:38:34.125Z,19.77
2023-11-28T06:41:41.113Z,18.98
2023-11-28T06:44:47.153Z,17.25
2023-11-28T06:47:53.288Z,20.08
2023-11-28T06:51:01.203Z,13.10
2023-11-28T06:54:09.153Z,16.80
2023-11-28T06:57:15.157Z,17.27
2023-11-28T07:00:22.138Z,20.30
2023-11-28T07:03:29.197Z,18.60
2023-11-28T07:06:35.187Z,19.77
2023-11-28T07:09:43.197Z,16.17
2023-11-28T07:12:49.129Z,20.58
2023-11-28T07:15:55.194Z,19.77
2023-11-28T07:18:54.978Z,20.40
2023-11-28T07:21:55.168Z,16.63
2023-11-28T07:25:02.493Z,19.25
2023-11-28T07:28:10.158Z,13.82
2023-11-28T07:31:09.994Z,18.88
2023-11-28T07:34:11.196Z,19.85
2023-11-28T07:37:18.192Z,19.73
2023-11-28T07:40:26.210Z,16.27
2023-11-28T07:43:33.191Z,22.05
2023-11-28T07:46:41.206Z,18.08
2023-11-28T07:49:47.229Z,22.98
2023-11-28T07:52:53.254Z,26.77
2023-11-28T07:56:01.193Z,24.13
2023-11-28T07:59:08.194Z,16.88
2023-11-28T08:02:15.317Z,18.42
2023-11-28T08:05:22.268Z,23.70
2023-11-28T08:08:28.178Z,19.48
2023-11-28T08:11:35.201Z,24.13
2023-11-28T08:14:41.255Z,21.50
2023-11-28T08:17:49.206Z,26.02
2023-11-28T08:20:56.217Z,20.60
2023-11-28T08:24:03.192Z,26.42
2023-11-28T08:27:11.200Z,30.75
2023-11-28T08:30:17.199Z,28.17
2023-11-28T08:33:23.241Z,24.50
2023-11-28T08:36:30.286Z,30.40
2023-11-28T08:39:37.252Z,33.72
2023-11-28T08:42:45.205Z,22.98
2023-11-28T08:45:51.308Z,22.23
2023-11-28T08:48:59.235Z,23.67
2023-11-28T08:52:06.074Z,18.95
2023-11-28T08:55:13.339Z,24.73
2023-11-28T08:58:21.224Z,27.85
2023-11-28T09:01:21.101Z,31.38
2023-11-28T09:04:20.290Z,26.13
2023-11-28T09:07:26.235Z,28.77
2023-11-28T09:10:33.238Z,38.00
2023-11-28T09:13:35.257Z,32.78
2023-11-28T09:16:41.297Z,28.60
2023-11-28T09:19:49.275Z,29.92
2023-11-28T09:22:56.364Z,26.30
2023-11-28T09:26:03.726Z,21.05
2023-11-28T09:29:13.268Z,27.92
2023-11-28T09:32:22.372Z,25.42
2023-11-28T09:35:23.615Z,25.40
2023-11-28T09:38:24.331Z,24.45
2023-11-28T09:41:39.958Z,28.85
2023-11-28T09:44:55.246Z,25.80
2023-11-28T09:48:02.396Z,29.30
2023-11-28T09:51:09.271Z,24.92
2023-11-28T09:54:16.351Z,24.73
2023-11-28T09:57:22.299Z,28.92
2023-11-28T10:00:32.292Z,23.92
2023-11-28T10:03:38.562Z,21.88
2023-11-28T10:06:46.337Z,21.88
2023-11-28T10:09:52.253Z,28.80
2023-11-28T10:12:59.333Z,21.52
2023-11-28T10:16:09.314Z,25.65
2023-11-28T10:19:15.292Z,27.75
2023-11-28T10:22:23.251Z,23.40
2023-11-28T10:25:29.274Z,26.90
2023-11-28T10:28:35.283Z,24.38
2023-11-28T10:31:44.315Z,20.90
2023-11-28T10:34:50.357Z,28.45
2023-11-28T10:37:56.353Z,23.17
2023-11-28T10:41:04.393Z,32.40
2023-11-28T10:44:11.740Z,26.02
2023-11-28T10:47:20.366Z,22.48
2023-11-28T10:50:27.342Z,33.38
2023-11-28T10:53:35.432Z,26.08
2023-11-28T10:56:43.307Z,20.10
2023-11-28T10:59:52.329Z,29.23
2023-11-28T11:03:01.525Z,27.75
2023-11-28T11:06:09.335Z,30.58
2023-11-28T11:09:15.275Z,30.70
2023-11-28T11:12:23.332Z,24.83
2023-11-28T11:15:35.369Z,25.75
2023-11-28T11:18:50.394Z,29.55
2023-11-28T11:21:58.312Z,29.35
2023-11-28T11:25:05.298Z,27.58
2023-11-28T11:28:11.396Z,24.95
2023-11-28T11:31:27.322Z,22.92
2023-11-28T11:34:50.420Z,24.58
2023-11-28T11:37:57.334Z,24.55
2023-11-28T11:41:04.324Z,31.80
2023-11-28T11:44:12.369Z,28.67
2023-11-28T11:47:30.659Z,29.67
2023-11-28T11:50:38.791Z,31.10
2023-11-28T11:53:46.419Z,27.63
2023-11-28T11:56:53.334Z,23.10
2023-11-28T12:00:01.341Z,28.13
2023-11-28T12:03:12.491Z,27.52
2023-11-28T12:06:19.348Z,21.67
2023-11-28T12:09:29.353Z,28.67
2023-11-28T12:12:35.343Z,27.42
2023-11-28T12:15:43.428Z,26.60
2023-11-28T12:18:49.421Z,27.88
2023-11-28T12:21:55.348Z,36.35
2023-11-28T12:25:03.531Z,24.83
2023-11-28T12:28:11.377Z,23.48
2023-11-28T12:31:19.420Z,28.05
2023-11-28T12:34:25.406Z,27.25
2023-11-28T12:37:31.372Z,26.85
2023-11-28T12:40:39.392Z,28.58
2023-11-28T12:43:46.389Z,22.33
2023-11-28T12:46:52.412Z,27.90
2023-11-28T12:49:58.413Z,24.95
2023-11-28T12:53:04.404Z,30.35
2023-11-28T12:56:15.395Z,22.00
2023-11-28T12:59:22.391Z,24.70
2023-11-28T13:02:28.540Z,31.48
2023-11-28T13:05:35.425Z,32.92
2023-11-28T13:08:42.381Z,29.63
2023-11-28T13:11:50.376Z,28.88
2023-11-28T13:14:56.657Z,31.92
2023-11-28T13:18:03.506Z,33.83
2023-11-28T13:21:11.439Z,38.95
2023-11-28T13:24:18.412Z,35.03
2023-11-28T13:27:27.411Z,32.25
2023-11-28T13:30:35.460Z,36.47
2023-11-28T13:33:41.479Z,33.55
2023-11-28T13:36:49.387Z,32.97
2023-11-28T13:39:55.471Z,31.67
2023-11-28T13:43:02.418Z,32.17
2023-11-28T13:46:09.480Z,36.22
2023-11-28T13:49:15.490Z,33.10
2023-11-28T13:52:21.416Z,37.67
2023-11-28T13:55:21.248Z,32.08
2023-11-28T13:58:23.714Z,29.67
2023-11-28T14:01:31.451Z,31.40
2023-11-28T14:04:38.421Z,29.52
2023-11-28T14:07:44.423Z,27.60
2023-11-28T14:10:50.603Z,33.45
2023-11-28T14:13:58.465Z,38.03
2023-11-28T14:17:04.489Z,33.15
2023-11-28T14:20:12.501Z,32.75
2023-11-28T14:23:20.661Z,30.77
2023-11-28T14:26:29.459Z,35.22
2023-11-28T14:29:32.298Z,33.67
2023-11-28T14:32:32.534Z,35.30
2023-11-28T14:35:39.511Z,40.30
2023-11-28T14:38:45.510Z,33.78
2023-11-28T14:41:51.461Z,36.22
2023-11-28T14:44:59.457Z,37.88
2023-11-28T14:48:05.660Z,37.97
2023-11-28T14:51:14.564Z,29.50
2023-11-28T14:54:20.428Z,38.50
2023-11-28T14:57:26.595Z,32.80
2023-11-28T15:00:37.455Z,33.45
2023-11-28T15:03:43.482Z,36.13
2023-11-28T15:06:51.497Z,37.28
2023-11-28T15:09:57.462Z,39.67
2023-11-28T15:13:06.449Z,37.58
2023-11-28T15:16:15.497Z,30.42
2023-11-28T15:19:22.495Z,40.67
2023-11-28T15:22:41.486Z,41.58
2023-11-28T15:25:49.509Z,37.22
2023-11-28T15:28:55.495Z,39.90
2023-11-28T15:32:06.631Z,30.55
2023-11-28T15:35:14.563Z,31.30
2023-11-28T15:38:21.533Z,31.70
2023-11-28T15:41:28.616Z,29.63
2023-11-28T15:44:36.568Z,36.15
2023-11-28T15:47:45.732Z,29.67
2023-11-28T15:50:53.542Z,31.55
2023-11-28T15:53:59.490Z,34.90
2023-11-28T15:57:10.342Z,31.60
2023-11-28T16:00:20.578Z,33.13
2023-11-28T16:03:28.613Z,37.88
2023-11-28T16:06:34.516Z,26.27
2023-11-28T16:09:42.500Z,27.33
2023-11-28T16:12:49.519Z,33.50
2023-11-28T16:15:55.512Z,27.80
2023-11-28T16:19:04.521Z,33.05
2023-11-28T16:22:14.538Z,29.02
2023-11-28T16:25:20.519Z,29.60
2023-11-28T16:28:28.489Z,24.02
2023-11-28T16:31:38.555Z,30.50
2023-11-28T16:34:46.529Z,28.75
2023-11-28T16:37:53.643Z,36.63
2023-11-28T16:41:00.577Z,27.45
2023-11-28T16:44:08.562Z,34.45
2023-11-28T16:47:15.612Z,30.48
2023-11-28T16:50:25.608Z,34.05
2023-11-28T16:53:31.624Z,33.83
2023-11-28T16:56:38.706Z,32.15
2023-11-28T16:59:46.641Z,23.75
2023-11-28T17:02:54.735Z,31.10
2023-11-28T17:06:04.542Z,35.92
2023-11-28T17:09:11.571Z,29.88
2023-11-28T17:12:18.602Z,26.98
2023-11-28T17:15:26.551Z,32.92
2023-11-28T17:18:33.597Z,30.30
2023-11-28T17:21:41.534Z,27.33
2023-11-28T17:24:47.550Z,26.27
2023-11-28T17:27:54.545Z,28.42
2023-11-28T17:31:01.691Z,26.00
2023-11-28T17:34:08.552Z,30.02
2023-11-28T17:37:16.563Z,28.00
2023-11-28T17:40:24.586Z,22.35
2023-11-28T17:43:30.588Z,22.35
2023-11-28T17:46:38.607Z,20.35
2023-11-28T17:49:44.564Z,23.15
2023-11-28T17:52:53.611Z,22.08
2023-11-28T17:55:59.590Z,23.27
2023-11-28T17:59:07.635Z,16.45
2023-11-28T18:02:13.799Z,17.52
2023-11-28T18:05:25.639Z,25.17
2023-11-28T18:08:35.609Z,21.38
2023-11-28T18:11:42.688Z,23.80
2023-11-28T18:14:49.585Z,22.50
2023-11-28T18:17:55.696Z,22.52
2023-11-28T18:21:11.769Z,24.35
2023-11-28T18:24:28.670Z,27.10
2023-11-28T18:27:34.611Z,23.80
2023-11-28T18:30:43.585Z,29.17
2023-11-28T18:33:49.645Z,27.45
2023-11-28T18:36:57.629Z,26.80
2023-11-28T18:40:05.623Z,21.98
2023-11-28T18:43:13.597Z,20.63
2023-11-28T18:46:19.659Z,23.65
2023-11-28T18:49:25.643Z,24.35
2023-11-28T18:52:32.632Z,23.05
2023-11-28T18:55:41.596Z,21.83
2023-11-28T18:58:41.517Z,23.80
2023-11-28T19:01:41.704Z,22.20
2023-11-28T19:04:49.690Z,27.20
2023-11-28T19:07:56.606Z,26.48
2023-11-28T19:11:05.626Z,28.55
2023-11-28T19:14:12.886Z,23.67
2023-11-28T19:17:20.768Z,28.10
2023-11-28T19:20:26.813Z,30.52
2023-11-28T19:23:32.805Z,28.77
2023-11-28T19:26:40.785Z,26.15
2023-11-28T19:29:46.788Z,24.38
2023-11-28T19:32:52.889Z,22.73
2023-11-28T19:36:00.779Z,21.48
2023-11-28T19:39:08.790Z,27.65
2023-11-28T19:42:16.752Z,27.83
2023-11-28T19:45:22.803Z,27.95
2023-11-28T19:48:28.783Z,21.65
2023-11-28T19:51:35.789Z,25.85
2023-11-28T19:54:43.788Z,24.95
2023-11-28T19:57:51.791Z,30.23
2023-11-28T20:00:59.756Z,25.17
2023-11-28T20:04:06.826Z,24.58
2023-11-28T20:07:13.844Z,17.27
2023-11-28T20:10:21.808Z,26.90
2023-11-28T20:13:29.838Z,23.88
2023-11-28T20:16:35.918Z,23.45
2023-11-28T20:19:42.795Z,24.38
2023-11-28T20:22:50.845Z,25.58
2023-11-28T20:25:57.894Z,24.20
2023-11-28T20:29:06.500Z,23.92
2023-11-28T20:32:19.852Z,29.05
2023-11-28T20:35:26.912Z,24.42
2023-11-28T20:38:32.812Z,36.25
2023-11-28T20:41:38.889Z,27.10
2023-11-28T20:44:46.804Z,29.75
2023-11-28T20:47:54.890Z,25.00
2023-11-28T20:51:00.824Z,28.02
2023-11-28T20:54:07.840Z,30.35
2023-11-28T20:57:14.821Z,27.90
2023-11-28T21:00:23.816Z,29.10
2023-11-28T21:03:29.813Z,25.38
2023-11-28T21:06:36.978Z,28.67
2023-11-28T21:09:44.880Z,27.10
2023-11-28T21:12:52.833Z,27.55
2023-11-28T21:16:02.838Z,29.88
2023-11-28T21:19:08.853Z,22.20
2023-11-28T21:22:14.872Z,26.77
2023-11-28T21:25:20.841Z,23.38
2023-11-28T21:28:36.872Z,24.27
2023-11-28T21:31:46.013Z,24.80
2023-11-28T21:34:53.849Z,30.70
2023-11-28T21:38:01.876Z,30.90
2023-11-28T21:41:07.952Z,26.60
2023-11-28T21:44:14.914Z,18.23
2023-11-28T21:47:22.873Z,24.80
2023-11-28T21:50:29.896Z,23.73
2023-11-28T21:53:37.077Z,20.27
2023-11-28T21:56:43.953Z,19.42
2023-11-28T21:59:51.888Z,19.60
2023-11-28T22:02:59.931Z,18.73
2023-11-28T22:06:06.943Z,16.73
2023-11-28T22:09:17.678Z,17.05
2023-11-28T22:12:26.620Z,15.07
2023-11-28T22:15:32.567Z,15.35
2023-11-28T22:18:41.597Z,17.02
2023-11-28T22:21:48.647Z,11.90
2023-11-28T22:24:54.603Z,18.27
2023-11-28T22:28:01.599Z,17.52
2023-11-28T22:31:09.629Z,15.57
2023-11-28T22:34:19.175Z,17.15
2023-11-28T22:37:25.190Z,18.67
2023-11-28T22:40:33.180Z,13.48
2023-11-28T22:43:41.210Z,15.82
2023-11-28T22:46:47.230Z,18.95
2023-11-28T22:49:55.231Z,16.38
2023-11-28T22:53:02.334Z,15.05
2023-11-28T22:56:08.240Z,15.48
2023-11-28T22:59:15.252Z,16.25
2023-11-28T23:02:25.338Z,15.05
2023-11-28T23:05:34.199Z,12.25
2023-11-28T23:08:43.260Z,14.27
2023-11-28T23:11:50.190Z,14.27
2023-11-28T23:14:56.242Z,12.20
2023-11-28T23:17:56.075Z,12.30
2023-11-28T23:20:59.245Z,15.43
2023-11-28T23:24:06.222Z,14.73
2023-11-28T23:27:14.264Z,16.10
2023-11-28T23:30:21.237Z,13.60
2023-11-28T23:33:29.294Z,14.95
2023-11-28T23:36:39.271Z,13.52
2023-11-28T23:39:45.246Z,15.48
2023-11-28T23:42:53.068Z,20.05
2023-11-28T23:45:59.238Z,14.73
2023-11-28T23:49:12.304Z,14.77
2023-11-28T23:52:21.236Z,15.63
2023-11-28T23:55:28.293Z,11.98
2023-11-28T23:58:34.315Z,12.65
